• Join FlightAware (Why Join?)
  • Login
  • US Flag 
05:56PM EST


 

Airport Tracker/Info


-or-


 

Live Flight TrackerFlight Track Log ✈ N9029X ✈ 20-Jun-2013 ✈ 2G9 - 17G

Flight Track Log - Related Links

Times and Time Zones

All times are in EDT time to prevent confusion due to time zone crossing. See the N9029X flight status page for this flight to view local times or setup timezone preferences in your user account.

Time Position Orientation Groundspeed Altitude Reporting Facility
EDT Latitude Longitude Course Direction KTS MPH feet Rate Location/Type
09:31AM 40.4481 -81.0960 285° West  Level Estimated
09:32AM 40.4566 -81.1416 284° West  Level Estimated
09:33AM 40.4650 -81.1872 284° West  Level Estimated
09:34AM 40.4735 -81.2329 284° West  Level Estimated
09:35AM 40.4819 -81.2785 284° West  Level Estimated
09:36AM 40.4904 -81.3242 284° West  Level Estimated
09:37AM 40.4988 -81.3699 284° West  Level Estimated
09:38AM 40.5072 -81.4156 284° West  Level Estimated
09:39AM 40.5155 -81.4613 284° West  Level Estimated
09:40AM 40.5239 -81.5070 284° West  Level Estimated
09:41AM 40.5322 -81.5527 284° West  Level Estimated
09:42AM 40.5406 -81.5984 283° West  Level Estimated
09:43AM 40.5489 -81.6441 283° West  Level Estimated
09:43AM 40.3811 -80.9028 283° West 126 145 6,400  Level Indianapolis Center
09:44AM 40.5571 -81.6899 283° West  Level Estimated
09:44AM 40.3886 -80.9478 282° West 125 144 6,400  Level Indianapolis Center
09:45AM 40.5654 -81.7357 283° West  Level Estimated
09:45AM 40.3958 -80.9908 282° West 122 140 6,500  Level Indianapolis Center
09:46AM 40.5736 -81.7814 283° West  Level Estimated
09:47AM 40.5819 -81.8272 283° West  Level Estimated
09:47AM 40.4053 -81.0414 284° West 121 139 6,500  Level Indianapolis Center
09:48AM 40.5901 -81.8730 283° West  Level Estimated
09:48AM 40.4128 -81.0867 282° West 124 143 6,400  Level Indianapolis Center
09:49AM 40.5983 -81.9188 283° West  Level Estimated
09:49AM 40.4222 -81.1311 286° West 125 144 6,400  Level Indianapolis Center
09:50AM 40.4347 -81.1736 291° West 123 142 6,400  Level Indianapolis Center
09:51AM 40.4447 -81.2144 288° West 120 138 6,400  Level Indianapolis Center
09:52AM 40.4528 -81.2583 284° West 120 138 6,500 60 Climbing Indianapolis Center
09:53AM 40.4603 -81.3058 282° West 126 145 6,600  Climbing Indianapolis Center
09:54AM 40.4700 -81.3469 287° West 122 140 6,600 -60 Level Indianapolis Center
09:55AM 40.4786 -81.3975 283° West 121 139 6,500 -60 Descending Indianapolis Center
09:56AM 40.4861 -81.4394 283° West 118 136 6,500  Level Indianapolis Center
09:57AM 40.4939 -81.4817 284° West 116 133 6,600  Climbing Indianapolis Center
09:58AM 40.4994 -81.5264 279° West 121 139 6,500 -120 Descending Indianapolis Center
09:59AM 40.5069 -81.5717 282° West 124 143 6,400  Descending Indianapolis Center
10:00AM 40.5136 -81.6156 281° West 123 142 6,500 60 Climbing Indianapolis Center
10:02AM 40.5366 -81.6810 295° West  Level FlightAware Approximate
10:09AM 40.6026 -81.9997 287° West  Level FlightAware Approximate
10:10AM 40.6130 -82.0448 287° West  Level FlightAware Approximate
10:11AM 40.6233 -82.0898 287° West  Level FlightAware Approximate
10:12AM 40.6336 -82.1349 283° West  Level FlightAware Approximate
10:13AM 40.6413 -82.1809 283° West  Level FlightAware Approximate
10:14AM 40.6491 -82.2269 282° West  Level FlightAware Approximate
10:15AM 40.6568 -82.2729 282° West  Level FlightAware Approximate
10:16AM 40.6644 -82.3189 282° West  Level FlightAware Approximate
10:17AM 40.6721 -82.3649 282° West  Level FlightAware Approximate
10:18AM 40.6798 -82.4109 282° West  Level FlightAware Approximate
10:19AM 40.6874 -82.4570 282° West  Level FlightAware Approximate
10:20AM 40.6950 -82.5030 282° West  Level FlightAware Approximate